CheckWX is a tool to help pilots better visualize weather data.  It is not intended as a substitute for an official pre-flight weather briefing.

19:55:24 UTC

KAEJ METAR
Central Colorado Regional Airport
Buena Vista, Colorado, USA
Current

20 mins ago

KAEJ 221935Z AUTO 32013G19KT 10SM OVC090 03/M04 A2995 RMK AO2 T00301044
Observed
Nov-22 @ 19:35 UTC
Wind
  • 320° at 13 KTS
  • Gusting to 19 KTS
Visibility
10 SM
Flight Rules
VFR
Cloud Levels
  • Overcast at 9,000' AGL
Temperature
C / 37°F
Dewpoint
-4°C / 25°F
Humidity
60%
Altimeter
29.95" Hg
Pressure
1014.22 hPa
Previous

40 mins ago

KAEJ 221915Z AUTO 32013G18KT 10SM OVC090 03/M04 A2996 RMK AO2 T00291040
Observed
Nov-22 @ 19:15 UTC
Wind
  • 320° at 13 KTS
  • Gusting to 18 KTS
Visibility
10 SM
Flight Rules
VFR
Cloud Levels
  • Overcast at 9,000' AGL
Temperature
C / 37°F
Dewpoint
-4°C / 25°F
Humidity
60%
Altimeter
29.96" Hg
Pressure
1014.52 hPa
Previous

60 mins ago

KAEJ 221855Z AUTO 32014KT 10SM SCT060 OVC090 02/M04 A2997 RMK AO2 T00231038
Observed
Nov-22 @ 18:55 UTC
Wind
  • 320° at 14 KTS
Visibility
10 SM
Flight Rules
VFR
Cloud Levels
  • Scattered at 6,000' AGL
  • Overcast at 9,000' AGL
Temperature
C / 36°F
Dewpoint
-4°C / 25°F
Humidity
65%
Altimeter
29.97" Hg
Pressure
1014.92 hPa